Airfield :
LOGIN :

Register | Disclaimer

   EN    FR    IT 

 










Legend :    VFR   Marginal VFR   IFR   Intensive IFR   Very Intensive IFR
Visi :
Ceiling :
>= 8 km
>= 3000ft
5 to 8 km
1000 to 3000 ft
1500m to 5 km
500 to 1000 ft
800 to 1500m
200 to 500 ft
< 800m
< 200 ft
Symbols :   Thunderstorms  Fog  Heavy snow  Heavy precipitations  Wind > 20 kt
SIGMETs :     Misc.  Thunderstorms  Icing  Turbulence  Mountain Waves  Volcanic Ashes






- Airport Elevation : 359 ft
- IATA code : BVA


LFOB - Beauvais

CURRENT METAR :
  • 281900Z AUTO 02008KT CAVOK 14/05 Q1020 NOSIG

EXPIRED METARs :
  • 281830Z AUTO 02012KT CAVOK 15/05 Q1020 NOSIG
  • 281800Z AUTO 02014KT 9999 SCT047 OVC058 16/06 Q1020 NOSIG
  • 281730Z AUTO 02012KT 9999 BKN047 BKN060 OVC080 16/07 Q1020 NOSIG
  • 281700Z AUTO 01010KT 9999 FEW045 BKN058 OVC080 17/08 Q1020 NOSIG
  • 281630Z AUTO 01009KT CAVOK 17/08 Q1020 NOSIG

TAF TAF LFOB
Valid from the 28 at 18:00 until the 29 at 18:00 UTC


281700Z 2818/2918 01010KT CAVOK
PROB30 2916/2918 SHRA BKN030TCU
ATIS : +33 3 44 11 49 28



MET'MAP, your aeronautical weather chart ! - Copyright ORBIFLY December 2007 - Disclaimer

ORBIFLY MET'MAP TEAM :

Programming & Development : Alexandra Zaïnal
Original concept : Baudouin d'Aumeries
Technical & hardware support : Manuel Goepfert
Assistance : Marc-Olivier Méhu

Contact : metmap@orbifly.com




SOURCES & CREDITS :

   NOAA